sensor_id;sensor_type;location;lat;lon;timestamp;P1;durP1;ratioP1;P2;durP2;ratioP2
27642;SDS011;15053;48.618;10.024;2023-03-23T00:01:20;1.58;;;1.40;;
27642;SDS011;15053;48.618;10.024;2023-03-23T00:03:50;2.10;;;1.45;;
27642;SDS011;15053;48.618;10.024;2023-03-23T00:06:17;2.72;;;1.52;;
27642;SDS011;15053;48.618;10.024;2023-03-23T00:08:44;3.05;;;1.75;;
27642;SDS011;15053;48.618;10.024;2023-03-23T00:11:15;2.30;;;1.52;;
27642;SDS011;15053;48.618;10.024;2023-03-23T00:13:44;1.63;;;1.45;;
27642;SDS011;15053;48.618;10.024;2023-03-23T00:16:16;2.33;;;1.70;;
27642;SDS011;15053;48.618;10.024;2023-03-23T00:18:48;2.72;;;1.73;;
27642;SDS011;15053;48.618;10.024;2023-03-23T00:21:18;1.77;;;1.50;;
27642;SDS011;15053;48.618;10.024;2023-03-23T00:23:44;2.10;;;1.48;;
27642;SDS011;15053;48.618;10.024;2023-03-23T00:26:10;3.28;;;2.13;;
27642;SDS011;15053;48.618;10.024;2023-03-23T00:28:36;6.40;;;2.75;;
27642;SDS011;15053;48.618;10.024;2023-03-23T00:31:05;4.72;;;1.63;;
27642;SDS011;15053;48.618;10.024;2023-03-23T00:33:35;3.60;;;2.35;;
27642;SDS011;15053;48.618;10.024;2023-03-23T00:36:06;5.63;;;3.60;;
27642;SDS011;15053;48.618;10.024;2023-03-23T00:38:36;8.13;;;4.57;;
27642;SDS011;15053;48.618;10.024;2023-03-23T00:41:03;5.82;;;3.33;;
27642;SDS011;15053;48.618;10.024;2023-03-23T00:43:29;4.50;;;2.35;;
27642;SDS011;15053;48.618;10.024;2023-03-23T00:45:56;2.78;;;2.05;;
27642;SDS011;15053;48.618;10.024;2023-03-23T00:48:26;3.42;;;1.90;;
27642;SDS011;15053;48.618;10.024;2023-03-23T00:50:53;3.05;;;1.52;;
27642;SDS011;15053;48.618;10.024;2023-03-23T00:53:20;2.35;;;1.60;;
27642;SDS011;15053;48.618;10.024;2023-03-23T00:55:46;3.20;;;1.52;;
27642;SDS011;15053;48.618;10.024;2023-03-23T00:58:13;1.95;;;1.52;;
27642;SDS011;15053;48.618;10.024;2023-03-23T01:00:39;2.28;;;1.55;;
27642;SDS011;15053;48.618;10.024;2023-03-23T01:03:05;2.50;;;1.40;;
27642;SDS011;15053;48.618;10.024;2023-03-23T01:05:35;1.60;;;1.15;;
27642;SDS011;15053;48.618;10.024;2023-03-23T01:08:02;5.20;;;1.25;;
27642;SDS011;15053;48.618;10.024;2023-03-23T01:10:29;2.65;;;1.52;;
27642;SDS011;15053;48.618;10.024;2023-03-23T01:12:58;2.22;;;1.40;;
27642;SDS011;15053;48.618;10.024;2023-03-23T01:15:26;2.67;;;1.38;;
27642;SDS011;15053;48.618;10.024;2023-03-23T01:17:52;4.32;;;1.30;;
27642;SDS011;15053;48.618;10.024;2023-03-23T01:20:18;3.33;;;1.40;;
27642;SDS011;15053;48.618;10.024;2023-03-23T01:22:43;4.93;;;1.40;;
27642;SDS011;15053;48.618;10.024;2023-03-23T01:25:09;3.05;;;1.20;;
27642;SDS011;15053;48.618;10.024;2023-03-23T01:27:36;1.70;;;1.20;;
27642;SDS011;15053;48.618;10.024;2023-03-23T01:30:02;2.17;;;1.48;;
27642;SDS011;15053;48.618;10.024;2023-03-23T01:32:29;1.67;;;1.25;;
27642;SDS011;15053;48.618;10.024;2023-03-23T01:34:55;2.30;;;1.50;;
27642;SDS011;15053;48.618;10.024;2023-03-23T01:37:21;2.75;;;1.50;;
27642;SDS011;15053;48.618;10.024;2023-03-23T01:39:52;3.05;;;1.83;;
27642;SDS011;15053;48.618;10.024;2023-03-23T01:42:21;1.45;;;1.10;;
27642;SDS011;15053;48.618;10.024;2023-03-23T01:47:15;1.48;;;1.20;;
27642;SDS011;15053;48.618;10.024;2023-03-23T01:49:46;4.33;;;1.30;;
27642;SDS011;15053;48.618;10.024;2023-03-23T01:52:15;1.88;;;1.50;;
27642;SDS011;15053;48.618;10.024;2023-03-23T01:54:47;2.63;;;1.50;;
27642;SDS011;15053;48.618;10.024;2023-03-23T01:57:14;2.08;;;1.40;;
27642;SDS011;15053;48.618;10.024;2023-03-23T01:59:43;3.80;;;1.50;;
27642;SDS011;15053;48.618;10.024;2023-03-23T02:02:17;1.83;;;1.42;;
27642;SDS011;15053;48.618;10.024;2023-03-23T02:04:45;3.28;;;1.60;;
27642;SDS011;15053;48.618;10.024;2023-03-23T02:07:12;5.38;;;2.60;;
27642;SDS011;15053;48.618;10.024;2023-03-23T02:09:40;6.75;;;3.35;;
27642;SDS011;15053;48.618;10.024;2023-03-23T02:12:07;10.07;;;6.50;;
27642;SDS011;15053;48.618;10.024;2023-03-23T02:14:34;3.13;;;2.17;;
27642;SDS011;15053;48.618;10.024;2023-03-23T02:33:56;3.15;;;1.70;;
27642;SDS011;15053;48.618;10.024;2023-03-23T02:36:33;4.25;;;3.17;;
27642;SDS011;15053;48.618;10.024;2023-03-23T02:41:56;4.90;;;2.53;;
27642;SDS011;15053;48.618;10.024;2023-03-23T02:44:26;2.60;;;1.50;;
27642;SDS011;15053;48.618;10.024;2023-03-23T02:46:56;4.00;;;1.60;;
27642;SDS011;15053;48.618;10.024;2023-03-23T02:49:24;3.00;;;2.05;;
27642;SDS011;15053;48.618;10.024;2023-03-23T02:51:54;4.45;;;1.90;;
27642;SDS011;15053;48.618;10.024;2023-03-23T02:56:51;2.95;;;1.73;;
27642;SDS011;15053;48.618;10.024;2023-03-23T02:59:23;2.30;;;1.48;;
27642;SDS011;15053;48.618;10.024;2023-03-23T03:01:55;1.77;;;1.58;;
27642;SDS011;15053;48.618;10.024;2023-03-23T03:04:24;2.78;;;1.40;;
27642;SDS011;15053;48.618;10.024;2023-03-23T03:12:20;2.78;;;1.50;;
27642;SDS011;15053;48.618;10.024;2023-03-23T03:15:05;4.97;;;1.65;;
27642;SDS011;15053;48.618;10.024;2023-03-23T03:18:13;6.72;;;1.55;;
27642;SDS011;15053;48.618;10.024;2023-03-23T03:20:48;5.10;;;1.65;;
27642;SDS011;15053;48.618;10.024;2023-03-23T03:23:16;1.98;;;1.52;;
27642;SDS011;15053;48.618;10.024;2023-03-23T03:25:44;2.42;;;1.80;;
27642;SDS011;15053;48.618;10.024;2023-03-23T03:28:21;3.63;;;1.90;;
27642;SDS011;15053;48.618;10.024;2023-03-23T03:30:52;3.38;;;1.80;;
27642;SDS011;15053;48.618;10.024;2023-03-23T03:33:21;3.35;;;2.08;;
27642;SDS011;15053;48.618;10.024;2023-03-23T03:35:57;3.10;;;1.70;;
27642;SDS011;15053;48.618;10.024;2023-03-23T03:38:25;3.95;;;1.55;;
27642;SDS011;15053;48.618;10.024;2023-03-23T03:40:54;2.17;;;1.75;;
27642;SDS011;15053;48.618;10.024;2023-03-23T03:43:22;1.90;;;1.73;;
27642;SDS011;15053;48.618;10.024;2023-03-23T03:45:48;1.95;;;1.65;;
27642;SDS011;15053;48.618;10.024;2023-03-23T03:48:13;3.10;;;1.80;;
27642;SDS011;15053;48.618;10.024;2023-03-23T03:50:39;1.95;;;1.30;;
27642;SDS011;15053;48.618;10.024;2023-03-23T03:53:05;2.53;;;1.95;;
27642;SDS011;15053;48.618;10.024;2023-03-23T03:55:31;2.33;;;1.83;;
27642;SDS011;15053;48.618;10.024;2023-03-23T03:58:04;3.70;;;2.10;;
27642;SDS011;15053;48.618;10.024;2023-03-23T04:00:48;7.60;;;3.85;;
27642;SDS011;15053;48.618;10.024;2023-03-23T04:03:18;4.78;;;2.80;;
27642;SDS011;15053;48.618;10.024;2023-03-23T04:05:57;6.82;;;3.65;;
27642;SDS011;15053;48.618;10.024;2023-03-23T04:08:24;4.30;;;2.55;;
27642;SDS011;15053;48.618;10.024;2023-03-23T04:10:52;4.03;;;1.98;;
27642;SDS011;15053;48.618;10.024;2023-03-23T04:13:19;3.40;;;1.90;;
27642;SDS011;15053;48.618;10.024;2023-03-23T04:15:45;4.03;;;2.00;;
27642;SDS011;15053;48.618;10.024;2023-03-23T04:18:12;5.38;;;2.30;;
27642;SDS011;15053;48.618;10.024;2023-03-23T04:20:41;3.40;;;1.95;;
27642;SDS011;15053;48.618;10.024;2023-03-23T04:23:08;3.00;;;1.92;;
27642;SDS011;15053;48.618;10.024;2023-03-23T04:25:34;5.50;;;2.50;;
27642;SDS011;15053;48.618;10.024;2023-03-23T04:28:01;3.35;;;2.35;;
27642;SDS011;15053;48.618;10.024;2023-03-23T04:30:32;7.20;;;2.80;;
27642;SDS011;15053;48.618;10.024;2023-03-23T04:33:04;4.32;;;2.58;;
27642;SDS011;15053;48.618;10.024;2023-03-23T04:35:30;3.92;;;2.97;;
27642;SDS011;15053;48.618;10.024;2023-03-23T04:38:14;6.78;;;3.75;;
27642;SDS011;15053;48.618;10.024;2023-03-23T04:40:44;4.70;;;2.90;;
27642;SDS011;15053;48.618;10.024;2023-03-23T04:43:33;7.00;;;4.35;;
27642;SDS011;15053;48.618;10.024;2023-03-23T04:46:16;8.20;;;2.88;;
27642;SDS011;15053;48.618;10.024;2023-03-23T04:48:45;7.93;;;3.13;;
27642;SDS011;15053;48.618;10.024;2023-03-23T04:51:21;10.63;;;4.93;;
27642;SDS011;15053;48.618;10.024;2023-03-23T04:53:49;5.40;;;3.53;;
27642;SDS011;15053;48.618;10.024;2023-03-23T04:56:15;9.75;;;3.70;;
27642;SDS011;15053;48.618;10.024;2023-03-23T04:58:43;6.15;;;3.97;;
27642;SDS011;15053;48.618;10.024;2023-03-23T05:01:33;4.45;;;3.40;;
27642;SDS011;15053;48.618;10.024;2023-03-23T05:04:13;4.97;;;2.90;;
27642;SDS011;15053;48.618;10.024;2023-03-23T05:06:42;5.50;;;3.50;;
27642;SDS011;15053;48.618;10.024;2023-03-23T05:09:15;5.50;;;3.47;;
27642;SDS011;15053;48.618;10.024;2023-03-23T05:11:41;5.72;;;3.78;;
27642;SDS011;15053;48.618;10.024;2023-03-23T05:14:06;8.73;;;5.03;;
27642;SDS011;15053;48.618;10.024;2023-03-23T05:16:37;4.40;;;3.50;;
27642;SDS011;15053;48.618;10.024;2023-03-23T05:19:03;5.40;;;3.63;;
27642;SDS011;15053;48.618;10.024;2023-03-23T05:21:31;5.00;;;3.72;;
27642;SDS011;15053;48.618;10.024;2023-03-23T05:23:57;5.80;;;4.18;;
27642;SDS011;15053;48.618;10.024;2023-03-23T05:26:26;6.93;;;3.90;;
27642;SDS011;15053;48.618;10.024;2023-03-23T05:29:02;6.15;;;3.15;;
27642;SDS011;15053;48.618;10.024;2023-03-23T05:31:39;5.97;;;3.88;;
27642;SDS011;15053;48.618;10.024;2023-03-23T05:34:05;5.25;;;4.30;;
27642;SDS011;15053;48.618;10.024;2023-03-23T05:36:37;7.28;;;5.18;;
27642;SDS011;15053;48.618;10.024;2023-03-23T05:39:12;7.10;;;4.18;;
27642;SDS011;15053;48.618;10.024;2023-03-23T05:42:06;6.22;;;3.97;;
27642;SDS011;15053;48.618;10.024;2023-03-23T05:44:43;6.68;;;3.40;;
27642;SDS011;15053;48.618;10.024;2023-03-23T05:47:10;6.22;;;3.92;;
27642;SDS011;15053;48.618;10.024;2023-03-23T05:49:39;5.95;;;3.55;;
27642;SDS011;15053;48.618;10.024;2023-03-23T05:52:08;12.75;;;6.22;;
27642;SDS011;15053;48.618;10.024;2023-03-23T05:54:33;11.50;;;5.30;;
27642;SDS011;15053;48.618;10.024;2023-03-23T05:57:00;5.47;;;4.18;;
27642;SDS011;15053;48.618;10.024;2023-03-23T05:59:40;6.13;;;4.75;;
27642;SDS011;15053;48.618;10.024;2023-03-23T06:02:11;7.18;;;5.10;;
27642;SDS011;15053;48.618;10.024;2023-03-23T06:04:39;6.13;;;3.63;;
27642;SDS011;15053;48.618;10.024;2023-03-23T06:07:14;5.57;;;3.60;;
27642;SDS011;15053;48.618;10.024;2023-03-23T06:09:46;4.97;;;3.83;;
27642;SDS011;15053;48.618;10.024;2023-03-23T06:12:23;5.93;;;3.92;;
27642;SDS011;15053;48.618;10.024;2023-03-23T06:15:08;7.45;;;3.20;;
27642;SDS011;15053;48.618;10.024;2023-03-23T06:18:06;6.63;;;3.53;;
27642;SDS011;15053;48.618;10.024;2023-03-23T06:20:39;3.90;;;3.20;;
27642;SDS011;15053;48.618;10.024;2023-03-23T06:23:35;5.32;;;3.53;;
27642;SDS011;15053;48.618;10.024;2023-03-23T06:26:02;10.38;;;4.28;;
27642;SDS011;15053;48.618;10.024;2023-03-23T06:28:31;6.32;;;3.83;;
27642;SDS011;15053;48.618;10.024;2023-03-23T06:31:01;6.30;;;3.13;;
27642;SDS011;15053;48.618;10.024;2023-03-23T06:33:31;4.95;;;3.63;;
27642;SDS011;15053;48.618;10.024;2023-03-23T06:36:07;7.13;;;3.40;;
27642;SDS011;15053;48.618;10.024;2023-03-23T06:38:55;5.57;;;3.58;;
27642;SDS011;15053;48.618;10.024;2023-03-23T06:41:30;5.78;;;3.28;;
27642;SDS011;15053;48.618;10.024;2023-03-23T06:43:57;4.65;;;3.42;;
27642;SDS011;15053;48.618;10.024;2023-03-23T06:46:27;5.47;;;3.53;;
27642;SDS011;15053;48.618;10.024;2023-03-23T06:49:14;4.78;;;3.67;;
27642;SDS011;15053;48.618;10.024;2023-03-23T06:51:48;5.00;;;4.03;;
27642;SDS011;15053;48.618;10.024;2023-03-23T06:54:13;5.35;;;3.20;;
27642;SDS011;15053;48.618;10.024;2023-03-23T06:56:42;5.85;;;3.67;;
27642;SDS011;15053;48.618;10.024;2023-03-23T06:59:08;5.20;;;3.28;;
27642;SDS011;15053;48.618;10.024;2023-03-23T07:01:36;5.38;;;3.25;;
27642;SDS011;15053;48.618;10.024;2023-03-23T07:04:02;5.57;;;3.33;;
27642;SDS011;15053;48.618;10.024;2023-03-23T07:06:39;6.45;;;3.30;;
27642;SDS011;15053;48.618;10.024;2023-03-23T07:09:07;4.68;;;3.03;;
27642;SDS011;15053;48.618;10.024;2023-03-23T07:11:33;7.10;;;3.33;;
27642;SDS011;15053;48.618;10.024;2023-03-23T07:14:04;4.82;;;3.10;;
27642;SDS011;15053;48.618;10.024;2023-03-23T07:16:30;4.18;;;3.33;;
27642;SDS011;15053;48.618;10.024;2023-03-23T07:18:56;5.10;;;3.15;;
27642;SDS011;15053;48.618;10.024;2023-03-23T07:21:21;3.88;;;2.97;;
27642;SDS011;15053;48.618;10.024;2023-03-23T07:23:47;5.28;;;3.47;;
27642;SDS011;15053;48.618;10.024;2023-03-23T07:26:20;6.72;;;3.35;;
27642;SDS011;15053;48.618;10.024;2023-03-23T07:28:49;6.10;;;2.90;;
27642;SDS011;15053;48.618;10.024;2023-03-23T07:31:31;4.60;;;3.10;;
27642;SDS011;15053;48.618;10.024;2023-03-23T07:33:56;3.67;;;3.30;;
27642;SDS011;15053;48.618;10.024;2023-03-23T07:36:28;5.43;;;3.03;;
27642;SDS011;15053;48.618;10.024;2023-03-23T07:38:54;4.35;;;2.75;;
27642;SDS011;15053;48.618;10.024;2023-03-23T07:41:20;6.57;;;3.65;;
27642;SDS011;15053;48.618;10.024;2023-03-23T07:43:48;4.55;;;2.90;;
27642;SDS011;15053;48.618;10.024;2023-03-23T07:46:23;6.25;;;3.53;;
27642;SDS011;15053;48.618;10.024;2023-03-23T07:48:59;4.47;;;2.80;;
27642;SDS011;15053;48.618;10.024;2023-03-23T07:51:34;3.83;;;2.55;;
27642;SDS011;15053;48.618;10.024;2023-03-23T07:54:00;4.40;;;2.78;;
27642;SDS011;15053;48.618;10.024;2023-03-23T07:56:49;4.78;;;2.58;;
27642;SDS011;15053;48.618;10.024;2023-03-23T08:01:46;3.33;;;2.55;;
27642;SDS011;15053;48.618;10.024;2023-03-23T08:04:24;2.65;;;2.40;;
27642;SDS011;15053;48.618;10.024;2023-03-23T08:07:21;3.97;;;2.25;;
27642;SDS011;15053;48.618;10.024;2023-03-23T08:09:50;5.22;;;2.65;;
27642;SDS011;15053;48.618;10.024;2023-03-23T08:12:28;2.85;;;2.20;;
27642;SDS011;15053;48.618;10.024;2023-03-23T08:15:28;5.03;;;3.13;;
27642;SDS011;15053;48.618;10.024;2023-03-23T08:18:12;3.78;;;2.63;;
27642;SDS011;15053;48.618;10.024;2023-03-23T08:20:41;4.50;;;3.08;;
27642;SDS011;15053;48.618;10.024;2023-03-23T08:23:33;5.35;;;2.63;;
27642;SDS011;15053;48.618;10.024;2023-03-23T08:26:30;5.00;;;2.40;;
27642;SDS011;15053;48.618;10.024;2023-03-23T08:29:25;8.77;;;2.70;;
27642;SDS011;15053;48.618;10.024;2023-03-23T08:31:51;3.28;;;2.53;;
27642;SDS011;15053;48.618;10.024;2023-03-23T08:34:26;5.20;;;2.53;;
27642;SDS011;15053;48.618;10.024;2023-03-23T08:37:21;4.70;;;2.60;;
27642;SDS011;15053;48.618;10.024;2023-03-23T08:40:02;5.13;;;2.92;;
27642;SDS011;15053;48.618;10.024;2023-03-23T08:43:01;2.70;;;2.35;;
27642;SDS011;15053;48.618;10.024;2023-03-23T08:45:29;2.78;;;2.10;;
27642;SDS011;15053;48.618;10.024;2023-03-23T08:48:24;3.63;;;2.50;;
27642;SDS011;15053;48.618;10.024;2023-03-23T08:51:15;5.53;;;2.58;;
27642;SDS011;15053;48.618;10.024;2023-03-23T08:54:08;6.63;;;3.03;;
27642;SDS011;15053;48.618;10.024;2023-03-23T08:56:52;3.70;;;2.15;;
27642;SDS011;15053;48.618;10.024;2023-03-23T08:59:41;3.80;;;2.45;;
27642;SDS011;15053;48.618;10.024;2023-03-23T09:02:17;5.30;;;2.53;;
27642;SDS011;15053;48.618;10.024;2023-03-23T09:05:01;5.05;;;2.60;;
27642;SDS011;15053;48.618;10.024;2023-03-23T09:07:43;5.10;;;2.85;;
27642;SDS011;15053;48.618;10.024;2023-03-23T09:10:11;6.60;;;2.67;;
27642;SDS011;15053;48.618;10.024;2023-03-23T09:12:38;5.18;;;2.42;;
27642;SDS011;15053;48.618;10.024;2023-03-23T09:15:05;3.45;;;2.25;;
27642;SDS011;15053;48.618;10.024;2023-03-23T09:17:36;4.65;;;2.22;;
27642;SDS011;15053;48.618;10.024;2023-03-23T09:20:04;7.68;;;2.15;;
27642;SDS011;15053;48.618;10.024;2023-03-23T09:22:41;5.22;;;2.25;;
27642;SDS011;15053;48.618;10.024;2023-03-23T09:25:10;3.20;;;2.28;;
27642;SDS011;15053;48.618;10.024;2023-03-23T09:27:37;3.85;;;2.20;;
27642;SDS011;15053;48.618;10.024;2023-03-23T09:30:05;3.50;;;2.33;;
27642;SDS011;15053;48.618;10.024;2023-03-23T09:32:37;2.63;;;2.15;;
27642;SDS011;15053;48.618;10.024;2023-03-23T09:35:05;5.20;;;1.65;;
27642;SDS011;15053;48.618;10.024;2023-03-23T09:37:37;3.70;;;2.00;;
27642;SDS011;15053;48.618;10.024;2023-03-23T09:40:04;4.22;;;1.70;;
27642;SDS011;15053;48.618;10.024;2023-03-23T09:45:39;3.05;;;1.73;;
27642;SDS011;15053;48.618;10.024;2023-03-23T09:48:20;3.85;;;1.73;;
27642;SDS011;15053;48.618;10.024;2023-03-23T09:50:57;2.88;;;1.30;;
27642;SDS011;15053;48.618;10.024;2023-03-23T09:53:30;3.63;;;1.60;;
27642;SDS011;15053;48.618;10.024;2023-03-23T09:56:02;2.97;;;1.60;;
27642;SDS011;15053;48.618;10.024;2023-03-23T09:58:44;4.63;;;1.58;;
27642;SDS011;15053;48.618;10.024;2023-03-23T10:01:23;1.33;;;1.17;;
27642;SDS011;15053;48.618;10.024;2023-03-23T10:03:57;2.55;;;1.65;;
27642;SDS011;15053;48.618;10.024;2023-03-23T10:06:27;1.98;;;1.60;;
27642;SDS011;15053;48.618;10.024;2023-03-23T10:08:54;2.30;;;1.70;;
27642;SDS011;15053;48.618;10.024;2023-03-23T10:14:15;1.55;;;1.40;;
27642;SDS011;15053;48.618;10.024;2023-03-23T10:19:46;2.67;;;1.40;;
27642;SDS011;15053;48.618;10.024;2023-03-23T10:22:17;1.90;;;1.63;;
27642;SDS011;15053;48.618;10.024;2023-03-23T10:25:01;6.85;;;1.58;;
27642;SDS011;15053;48.618;10.024;2023-03-23T10:33:08;2.60;;;1.55;;
27642;SDS011;15053;48.618;10.024;2023-03-23T10:35:38;3.53;;;1.50;;
27642;SDS011;15053;48.618;10.024;2023-03-23T10:38:14;4.40;;;1.83;;
27642;SDS011;15053;48.618;10.024;2023-03-23T10:41:27;5.00;;;1.50;;
27642;SDS011;15053;48.618;10.024;2023-03-23T10:43:38;2.88;;;1.45;;
27642;SDS011;15053;48.618;10.024;2023-03-23T10:46:51;2.85;;;2.00;;
27642;SDS011;15053;48.618;10.024;2023-03-23T10:49:26;2.20;;;1.33;;
27642;SDS011;15053;48.618;10.024;2023-03-23T10:52:09;1.77;;;1.50;;
27642;SDS011;15053;48.618;10.024;2023-03-23T10:54:48;1.90;;;1.70;;
27642;SDS011;15053;48.618;10.024;2023-03-23T10:57:26;2.67;;;1.63;;
27642;SDS011;15053;48.618;10.024;2023-03-23T10:59:58;3.28;;;1.70;;
27642;SDS011;15053;48.618;10.024;2023-03-23T11:02:26;3.65;;;1.50;;
27642;SDS011;15053;48.618;10.024;2023-03-23T11:04:57;2.70;;;1.77;;
27642;SDS011;15053;48.618;10.024;2023-03-23T11:07:28;2.20;;;1.60;;
27642;SDS011;15053;48.618;10.024;2023-03-23T11:09:56;2.10;;;1.35;;
27642;SDS011;15053;48.618;10.024;2023-03-23T11:12:23;2.63;;;1.60;;
27642;SDS011;15053;48.618;10.024;2023-03-23T11:14:49;2.22;;;1.60;;
27642;SDS011;15053;48.618;10.024;2023-03-23T11:19:48;1.88;;;1.55;;
27642;SDS011;15053;48.618;10.024;2023-03-23T11:22:16;3.05;;;1.80;;
27642;SDS011;15053;48.618;10.024;2023-03-23T11:24:53;1.60;;;1.50;;
27642;SDS011;15053;48.618;10.024;2023-03-23T11:27:21;3.92;;;1.63;;
27642;SDS011;15053;48.618;10.024;2023-03-23T11:29:55;4.00;;;1.95;;
27642;SDS011;15053;48.618;10.024;2023-03-23T11:32:26;3.97;;;1.77;;
27642;SDS011;15053;48.618;10.024;2023-03-23T11:34:56;5.00;;;1.58;;
27642;SDS011;15053;48.618;10.024;2023-03-23T11:37:47;5.15;;;2.10;;
27642;SDS011;15053;48.618;10.024;2023-03-23T11:40:17;5.00;;;1.98;;
27642;SDS011;15053;48.618;10.024;2023-03-23T11:42:47;3.05;;;1.90;;
27642;SDS011;15053;48.618;10.024;2023-03-23T11:45:33;2.97;;;1.88;;
27642;SDS011;15053;48.618;10.024;2023-03-23T11:50:34;3.30;;;1.75;;
27642;SDS011;15053;48.618;10.024;2023-03-23T11:56:08;2.15;;;1.58;;
27642;SDS011;15053;48.618;10.024;2023-03-23T11:58:40;3.20;;;1.83;;
27642;SDS011;15053;48.618;10.024;2023-03-23T12:03:51;2.15;;;1.70;;
27642;SDS011;15053;48.618;10.024;2023-03-23T12:06:27;4.82;;;1.50;;
27642;SDS011;15053;48.618;10.024;2023-03-23T12:11:50;1.88;;;1.70;;
27642;SDS011;15053;48.618;10.024;2023-03-23T12:14:29;2.65;;;1.60;;
27642;SDS011;15053;48.618;10.024;2023-03-23T12:17:19;2.75;;;1.70;;
27642;SDS011;15053;48.618;10.024;2023-03-23T12:31:03;2.35;;;2.10;;
27642;SDS011;15053;48.618;10.024;2023-03-23T12:33:41;2.17;;;1.48;;
27642;SDS011;15053;48.618;10.024;2023-03-23T12:36:41;5.45;;;2.25;;
27642;SDS011;15053;48.618;10.024;2023-03-23T12:42:09;1.83;;;1.65;;
27642;SDS011;15053;48.618;10.024;2023-03-23T12:47:45;6.10;;;2.13;;
27642;SDS011;15053;48.618;10.024;2023-03-23T12:50:15;4.47;;;1.90;;
27642;SDS011;15053;48.618;10.024;2023-03-23T12:53:03;2.10;;;1.60;;
27642;SDS011;15053;48.618;10.024;2023-03-23T12:55:48;5.57;;;1.70;;
27642;SDS011;15053;48.618;10.024;2023-03-23T12:58:34;3.05;;;1.90;;
27642;SDS011;15053;48.618;10.024;2023-03-23T13:03:59;3.33;;;1.58;;
27642;SDS011;15053;48.618;10.024;2023-03-23T13:06:41;3.30;;;2.08;;
27642;SDS011;15053;48.618;10.024;2023-03-23T13:09:16;2.95;;;1.75;;
27642;SDS011;15053;48.618;10.024;2023-03-23T13:12:13;2.35;;;1.80;;
27642;SDS011;15053;48.618;10.024;2023-03-23T13:14:51;2.22;;;1.77;;
27642;SDS011;15053;48.618;10.024;2023-03-23T13:22:48;1.90;;;1.70;;
27642;SDS011;15053;48.618;10.024;2023-03-23T13:25:18;4.93;;;2.10;;
27642;SDS011;15053;48.618;10.024;2023-03-23T13:27:58;2.10;;;1.77;;
27642;SDS011;15053;48.618;10.024;2023-03-23T13:33:01;2.72;;;2.00;;
27642;SDS011;15053;48.618;10.024;2023-03-23T13:35:35;2.22;;;1.98;;
27642;SDS011;15053;48.618;10.024;2023-03-23T13:38:11;5.60;;;1.90;;
27642;SDS011;15053;48.618;10.024;2023-03-23T13:40:42;1.77;;;1.67;;
27642;SDS011;15053;48.618;10.024;2023-03-23T13:43:09;4.28;;;2.50;;
27642;SDS011;15053;48.618;10.024;2023-03-23T13:45:46;4.50;;;2.85;;
27642;SDS011;15053;48.618;10.024;2023-03-23T13:50:44;5.85;;;1.92;;
27642;SDS011;15053;48.618;10.024;2023-03-23T13:53:22;5.85;;;2.00;;
27642;SDS011;15053;48.618;10.024;2023-03-23T13:56:19;3.90;;;1.83;;
27642;SDS011;15053;48.618;10.024;2023-03-23T13:58:47;2.92;;;1.80;;
27642;SDS011;15053;48.618;10.024;2023-03-23T14:01:16;3.45;;;1.65;;
27642;SDS011;15053;48.618;10.024;2023-03-23T14:03:48;2.75;;;1.95;;
27642;SDS011;15053;48.618;10.024;2023-03-23T14:06:16;3.15;;;2.10;;
27642;SDS011;15053;48.618;10.024;2023-03-23T14:09:03;5.15;;;2.10;;
27642;SDS011;15053;48.618;10.024;2023-03-23T14:11:57;2.42;;;2.00;;
27642;SDS011;15053;48.618;10.024;2023-03-23T14:14:32;2.45;;;2.00;;
27642;SDS011;15053;48.618;10.024;2023-03-23T14:17:08;3.38;;;2.03;;
27642;SDS011;15053;48.618;10.024;2023-03-23T14:19:47;4.90;;;1.88;;
27642;SDS011;15053;48.618;10.024;2023-03-23T14:22:19;4.63;;;1.80;;
27642;SDS011;15053;48.618;10.024;2023-03-23T14:24:48;4.43;;;2.25;;
27642;SDS011;15053;48.618;10.024;2023-03-23T14:27:15;3.65;;;1.88;;
27642;SDS011;15053;48.618;10.024;2023-03-23T14:29:43;2.47;;;2.05;;
27642;SDS011;15053;48.618;10.024;2023-03-23T14:32:19;2.83;;;1.70;;
27642;SDS011;15053;48.618;10.024;2023-03-23T14:37:17;3.03;;;1.77;;
27642;SDS011;15053;48.618;10.024;2023-03-23T14:39:50;3.40;;;2.20;;
27642;SDS011;15053;48.618;10.024;2023-03-23T14:42:20;3.08;;;1.95;;
27642;SDS011;15053;48.618;10.024;2023-03-23T14:44:51;3.72;;;2.00;;
27642;SDS011;15053;48.618;10.024;2023-03-23T14:47:22;3.03;;;1.77;;
27642;SDS011;15053;48.618;10.024;2023-03-23T14:50:00;3.00;;;1.83;;
27642;SDS011;15053;48.618;10.024;2023-03-23T14:52:32;2.30;;;1.70;;
27642;SDS011;15053;48.618;10.024;2023-03-23T14:55:33;2.15;;;1.80;;
27642;SDS011;15053;48.618;10.024;2023-03-23T14:57:55;3.85;;;1.98;;
27642;SDS011;15053;48.618;10.024;2023-03-23T15:00:33;3.50;;;2.10;;
27642;SDS011;15053;48.618;10.024;2023-03-23T15:03:03;3.17;;;1.92;;
27642;SDS011;15053;48.618;10.024;2023-03-23T15:05:32;2.97;;;1.92;;
27642;SDS011;15053;48.618;10.024;2023-03-23T15:11:22;2.42;;;2.08;;
27642;SDS011;15053;48.618;10.024;2023-03-23T15:13:53;5.32;;;2.05;;
27642;SDS011;15053;48.618;10.024;2023-03-23T15:16:32;2.97;;;1.92;;
27642;SDS011;15053;48.618;10.024;2023-03-23T15:19:00;5.68;;;1.92;;
27642;SDS011;15053;48.618;10.024;2023-03-23T15:21:32;2.15;;;1.73;;
27642;SDS011;15053;48.618;10.024;2023-03-23T15:23:59;3.92;;;2.17;;
27642;SDS011;15053;48.618;10.024;2023-03-23T15:26:28;4.82;;;2.45;;
27642;SDS011;15053;48.618;10.024;2023-03-23T15:29:15;6.10;;;2.85;;
27642;SDS011;15053;48.618;10.024;2023-03-23T15:31:46;4.55;;;2.08;;
27642;SDS011;15053;48.618;10.024;2023-03-23T15:34:19;5.35;;;3.17;;
27642;SDS011;15053;48.618;10.024;2023-03-23T15:37:06;6.75;;;3.75;;
27642;SDS011;15053;48.618;10.024;2023-03-23T15:39:44;4.15;;;2.67;;
27642;SDS011;15053;48.618;10.024;2023-03-23T15:42:20;8.52;;;2.20;;
27642;SDS011;15053;48.618;10.024;2023-03-23T15:44:54;2.53;;;2.08;;
27642;SDS011;15053;48.618;10.024;2023-03-23T15:47:21;4.28;;;2.50;;
27642;SDS011;15053;48.618;10.024;2023-03-23T15:49:47;4.97;;;2.38;;
27642;SDS011;15053;48.618;10.024;2023-03-23T15:52:24;4.30;;;1.98;;
27642;SDS011;15053;48.618;10.024;2023-03-23T15:54:50;5.90;;;2.28;;
27642;SDS011;15053;48.618;10.024;2023-03-23T15:57:15;2.28;;;1.80;;
27642;SDS011;15053;48.618;10.024;2023-03-23T15:59:41;2.80;;;2.03;;
27642;SDS011;15053;48.618;10.024;2023-03-23T16:02:10;3.53;;;2.33;;
27642;SDS011;15053;48.618;10.024;2023-03-23T16:04:43;3.97;;;2.33;;
27642;SDS011;15053;48.618;10.024;2023-03-23T16:07:13;2.60;;;2.25;;
27642;SDS011;15053;48.618;10.024;2023-03-23T16:09:39;3.05;;;1.85;;
27642;SDS011;15053;48.618;10.024;2023-03-23T16:12:11;2.55;;;2.20;;
27642;SDS011;15053;48.618;10.024;2023-03-23T16:14:41;5.80;;;2.15;;
27642;SDS011;15053;48.618;10.024;2023-03-23T16:17:09;3.58;;;2.30;;
27642;SDS011;15053;48.618;10.024;2023-03-23T16:19:39;2.85;;;2.22;;
27642;SDS011;15053;48.618;10.024;2023-03-23T16:22:05;3.40;;;2.28;;
27642;SDS011;15053;48.618;10.024;2023-03-23T16:24:32;3.13;;;2.10;;
27642;SDS011;15053;48.618;10.024;2023-03-23T16:26:58;5.10;;;2.00;;
27642;SDS011;15053;48.618;10.024;2023-03-23T16:29:24;3.90;;;2.30;;
27642;SDS011;15053;48.618;10.024;2023-03-23T16:32:11;2.47;;;2.20;;
27642;SDS011;15053;48.618;10.024;2023-03-23T16:34:37;4.97;;;2.30;;
27642;SDS011;15053;48.618;10.024;2023-03-23T16:37:04;2.70;;;2.20;;
27642;SDS011;15053;48.618;10.024;2023-03-23T16:39:32;4.55;;;2.75;;
27642;SDS011;15053;48.618;10.024;2023-03-23T16:41:58;4.97;;;2.05;;
27642;SDS011;15053;48.618;10.024;2023-03-23T16:44:25;2.90;;;2.05;;